createdAt,value
2023-01-05T00:02:00.915Z,98.05
2023-01-05T00:04:28.104Z,96.82
2023-01-05T00:06:55.309Z,97.01
2023-01-05T00:09:22.312Z,97.49
2023-01-05T00:12:07.617Z,97.93
2023-01-05T00:14:53.550Z,98.48
2023-01-05T00:17:43.246Z,98.39
2023-01-05T00:20:39.384Z,98.03
2023-01-05T00:23:11.658Z,99.72
2023-01-05T00:25:41.086Z,97.94
2023-01-05T00:28:08.841Z,97.60
2023-01-05T00:30:46.880Z,98.98
2023-01-05T00:33:18.176Z,98.87
2023-01-05T00:35:45.036Z,98.54
2023-01-05T00:38:14.083Z,98.40
2023-01-05T00:40:40.966Z,98.78
2023-01-05T00:43:07.858Z,97.18
2023-01-05T00:45:34.826Z,97.37
2023-01-05T00:48:01.828Z,97.55
2023-01-05T00:50:28.696Z,96.82
2023-01-05T00:52:55.676Z,96.60
2023-01-05T00:55:22.633Z,95.20
2023-01-05T00:57:52.061Z,95.35
2023-01-05T01:00:19.949Z,95.67
2023-01-05T01:02:52.800Z,96.11
2023-01-05T01:05:22.763Z,96.55
2023-01-05T01:07:51.901Z,95.74
2023-01-05T01:10:18.880Z,96.78
2023-01-05T01:12:46.007Z,97.75
2023-01-05T01:15:13.089Z,98.41
2023-01-05T01:17:40.077Z,97.87
2023-01-05T01:20:08.089Z,98.11
2023-01-05T01:22:35.010Z,98.11
2023-01-05T01:25:01.904Z,97.70
2023-01-05T01:27:31.223Z,98.01
2023-01-05T01:29:58.308Z,98.43
2023-01-05T01:32:25.265Z,99.13
2023-01-05T01:34:56.850Z,98.48
2023-01-05T01:37:23.691Z,99.34
2023-01-05T01:39:50.529Z,99.13
2023-01-05T01:42:17.474Z,100.00
2023-01-05T01:44:55.406Z,100.00
2023-01-05T01:47:44.225Z,100.00
2023-01-05T01:50:35.361Z,100.00
2023-01-05T01:53:12.243Z,100.00
2023-01-05T01:55:42.263Z,100.00
2023-01-05T01:58:14.089Z,100.00
2023-01-05T02:00:41.904Z,100.00
2023-01-05T02:03:09.965Z,100.00
2023-01-05T02:05:41.922Z,100.00
2023-01-05T02:08:15.249Z,100.00
2023-01-05T02:11:20.931Z,100.00
2023-01-05T02:13:59.020Z,100.00
2023-01-05T02:16:55.745Z,100.00
2023-01-05T02:20:05.005Z,100.00
2023-01-05T02:23:06.865Z,100.00
2023-01-05T02:26:01.904Z,100.00
2023-01-05T02:29:11.519Z,100.00
2023-01-05T02:31:55.730Z,100.00
2023-01-05T02:34:56.682Z,100.00
2023-01-05T02:37:36.716Z,100.00
2023-01-05T02:40:27.765Z,100.00
2023-01-05T02:42:56.986Z,100.00
2023-01-05T02:45:24.775Z,100.00
2023-01-05T02:47:52.045Z,100.00
2023-01-05T02:50:30.232Z,100.00
2023-01-05T02:53:27.373Z,100.00
2023-01-05T02:56:20.781Z,100.00
2023-01-05T02:58:56.233Z,100.00
2023-01-05T03:01:49.642Z,100.00
2023-01-05T03:04:28.264Z,100.00
2023-01-05T03:07:00.530Z,100.00
2023-01-05T03:09:36.519Z,100.00
2023-01-05T03:12:45.133Z,100.00
2023-01-05T03:15:28.933Z,100.00
2023-01-05T03:18:09.675Z,100.00
2023-01-05T03:20:41.113Z,100.00
2023-01-05T03:23:30.740Z,100.00
2023-01-05T03:26:16.888Z,100.00
2023-01-05T03:29:20.380Z,100.00
2023-01-05T03:32:35.213Z,100.00
2023-01-05T03:35:31.525Z,100.00
2023-01-05T03:38:07.654Z,99.59
2023-01-05T03:40:38.420Z,98.84
2023-01-05T03:43:06.540Z,98.22
2023-01-05T03:45:53.195Z,98.31
2023-01-05T03:48:21.376Z,98.05
2023-01-05T03:50:50.956Z,97.67
2023-01-05T03:53:18.073Z,99.21
2023-01-05T03:55:45.057Z,99.62
2023-01-05T03:58:14.403Z,99.55
2023-01-05T04:00:41.267Z,98.90
2023-01-05T04:03:10.752Z,97.75
2023-01-05T04:05:44.760Z,96.87
2023-01-05T04:08:14.701Z,97.06
2023-01-05T04:10:41.518Z,96.29
2023-01-05T04:13:08.396Z,95.37
2023-01-05T04:15:39.943Z,93.99
2023-01-05T04:18:06.830Z,94.17
2023-01-05T04:20:36.159Z,95.13
2023-01-05T04:23:03.255Z,93.70
2023-01-05T04:25:30.192Z,94.27
2023-01-05T04:27:57.133Z,93.94
2023-01-05T04:30:23.962Z,95.01
2023-01-05T04:32:50.898Z,94.84
2023-01-05T04:35:17.719Z,95.75
2023-01-05T04:37:47.736Z,95.00
2023-01-05T04:40:14.721Z,94.39
2023-01-05T04:42:44.565Z,94.18
2023-01-05T04:45:14.054Z,94.83
2023-01-05T04:47:43.541Z,94.70
2023-01-05T04:50:12.964Z,94.09
2023-01-05T04:52:42.370Z,94.21
2023-01-05T04:55:09.698Z,94.31
2023-01-05T04:57:41.655Z,94.73
2023-01-05T05:00:11.202Z,95.37
2023-01-05T05:02:38.676Z,95.39
2023-01-05T05:05:09.223Z,93.83
2023-01-05T05:07:36.379Z,94.00
2023-01-05T05:10:04.050Z,94.90
2023-01-05T05:12:33.456Z,95.30
2023-01-05T05:15:00.427Z,95.13
2023-01-05T05:17:29.508Z,95.08
2023-01-05T05:19:56.706Z,94.96
2023-01-05T05:22:35.631Z,95.71
2023-01-05T05:25:02.525Z,94.67
2023-01-05T05:27:29.527Z,94.07
2023-01-05T05:29:56.392Z,93.71
2023-01-05T05:32:25.822Z,93.60
2023-01-05T05:34:52.743Z,93.38
2023-01-05T05:37:19.587Z,93.22
2023-01-05T05:39:46.574Z,92.42
2023-01-05T05:42:13.714Z,92.17
2023-01-05T05:44:41.053Z,91.81
2023-01-05T05:47:10.440Z,91.35
2023-01-05T05:49:39.859Z,91.00
2023-01-05T05:52:08.763Z,90.29
2023-01-05T05:54:37.724Z,89.34
2023-01-05T05:57:05.387Z,90.81
2023-01-05T05:59:34.967Z,89.19
2023-01-05T06:02:04.090Z,88.11
2023-01-05T06:04:31.051Z,89.13
2023-01-05T06:06:57.953Z,89.55
2023-01-05T06:09:27.358Z,88.85
2023-01-05T06:11:54.211Z,89.44
2023-01-05T06:14:21.505Z,89.94
2023-01-05T06:16:48.558Z,89.91
2023-01-05T06:19:17.838Z,89.05
2023-01-05T06:21:47.262Z,88.50
2023-01-05T06:24:14.200Z,89.43
2023-01-05T06:26:43.724Z,89.32
2023-01-05T06:29:10.662Z,89.48
2023-01-05T06:31:39.807Z,88.73
2023-01-05T06:34:06.728Z,89.01
2023-01-05T06:36:33.648Z,89.33
2023-01-05T06:39:03.219Z,89.46
2023-01-05T06:41:30.809Z,88.57
2023-01-05T06:43:57.762Z,88.31
2023-01-05T06:46:24.783Z,88.51
2023-01-05T06:48:51.757Z,88.54
2023-01-05T06:51:19.002Z,88.31
2023-01-05T06:53:46.068Z,88.79
2023-01-05T06:56:12.971Z,88.31
2023-01-05T06:58:40.064Z,88.01
2023-01-05T07:01:09.375Z,87.65
2023-01-05T07:03:36.599Z,86.79
2023-01-05T07:06:09.992Z,87.16
2023-01-05T07:08:39.846Z,86.70
2023-01-05T07:11:06.715Z,86.36
2023-01-05T07:13:33.554Z,85.58
2023-01-05T07:16:00.546Z,86.43
2023-01-05T07:18:27.449Z,86.44
2023-01-05T07:20:54.521Z,86.13
2023-01-05T07:23:21.445Z,85.01
2023-01-05T07:25:48.415Z,86.55
2023-01-05T07:28:15.522Z,85.60
2023-01-05T07:30:42.361Z,86.21
2023-01-05T07:33:09.294Z,85.22
2023-01-05T07:35:36.161Z,84.80
2023-01-05T07:38:02.969Z,83.87
2023-01-05T07:40:29.993Z,83.55
2023-01-05T07:42:56.978Z,84.08
2023-01-05T07:45:24.175Z,84.35
2023-01-05T07:47:54.100Z,84.45
2023-01-05T07:50:21.172Z,82.86
2023-01-05T07:52:50.620Z,81.94
2023-01-05T07:55:19.861Z,81.95
2023-01-05T07:57:47.538Z,82.34
2023-01-05T08:00:15.056Z,83.33
2023-01-05T08:02:42.871Z,83.17
2023-01-05T08:05:10.611Z,81.91
2023-01-05T08:07:37.653Z,81.36
2023-01-05T08:10:24.099Z,82.21
2023-01-05T08:13:11.962Z,81.62
2023-01-05T08:15:39.113Z,81.56
2023-01-05T08:18:05.988Z,81.65
2023-01-05T08:20:37.880Z,81.15
2023-01-05T08:23:04.980Z,81.53
2023-01-05T08:25:35.079Z,80.38
2023-01-05T08:28:04.481Z,81.25
2023-01-05T08:30:31.743Z,80.85
2023-01-05T08:33:00.776Z,81.86
2023-01-05T08:35:27.701Z,81.10
2023-01-05T08:37:54.619Z,81.52
2023-01-05T08:40:21.596Z,81.45
2023-01-05T08:42:48.537Z,80.79
2023-01-05T08:45:16.126Z,79.60
2023-01-05T08:47:46.428Z,78.55
2023-01-05T08:50:13.343Z,79.11
2023-01-05T08:52:41.129Z,74.35
2023-01-05T08:55:08.426Z,69.87
2023-01-05T08:57:35.611Z,68.68
2023-01-05T09:00:06.502Z,70.27
2023-01-05T09:02:33.632Z,72.10
2023-01-05T09:05:00.965Z,73.15
2023-01-05T09:07:32.561Z,74.34
2023-01-05T09:09:59.544Z,75.22
2023-01-05T09:12:32.612Z,74.15
2023-01-05T09:15:00.055Z,75.04
2023-01-05T09:17:32.660Z,74.19
2023-01-05T09:20:03.562Z,73.23
2023-01-05T09:22:35.945Z,73.35
2023-01-05T09:25:04.411Z,74.50
2023-01-05T09:27:31.582Z,75.29
2023-01-05T09:30:01.555Z,76.20
2023-01-05T09:32:28.511Z,76.91
2023-01-05T09:34:55.372Z,76.34
2023-01-05T09:37:24.398Z,76.94
2023-01-05T09:39:51.312Z,75.46
2023-01-05T09:42:21.881Z,76.47
2023-01-05T09:44:58.422Z,76.62
2023-01-05T09:47:38.947Z,76.79
2023-01-05T09:50:22.554Z,74.74
2023-01-05T09:52:51.935Z,74.29
2023-01-05T09:55:22.281Z,75.17
2023-01-05T09:58:26.406Z,73.58
2023-01-05T10:01:19.299Z,74.29
2023-01-05T10:04:05.658Z,73.74
2023-01-05T10:06:38.791Z,73.10
2023-01-05T10:09:11.462Z,75.16
2023-01-05T10:12:27.252Z,75.25
2023-01-05T10:15:07.766Z,75.21
2023-01-05T10:17:44.691Z,76.37
2023-01-05T10:20:16.239Z,74.59
2023-01-05T10:23:01.436Z,74.55
2023-01-05T10:25:46.195Z,74.29
2023-01-05T10:28:40.779Z,73.86
2023-01-05T10:31:24.071Z,74.90
2023-01-05T10:33:58.937Z,76.84
2023-01-05T10:37:10.194Z,76.98
2023-01-05T10:39:56.225Z,76.69
2023-01-05T10:42:48.976Z,76.50
2023-01-05T10:45:19.193Z,76.02
2023-01-05T10:47:47.109Z,77.19
2023-01-05T10:50:29.222Z,77.74
2023-01-05T10:52:59.398Z,76.06
2023-01-05T10:55:31.156Z,76.30
2023-01-05T10:57:58.116Z,75.90
2023-01-05T11:00:41.974Z,74.11
2023-01-05T11:03:15.914Z,73.70
2023-01-05T11:05:49.441Z,74.13
2023-01-05T11:08:22.873Z,74.13
2023-01-05T11:11:01.620Z,75.16
2023-01-05T11:13:40.539Z,75.36
2023-01-05T11:16:12.691Z,76.81
2023-01-05T11:19:01.983Z,78.16
2023-01-05T11:21:46.127Z,78.52
2023-01-05T11:24:25.073Z,77.48
2023-01-05T11:26:55.241Z,78.47
2023-01-05T11:29:26.942Z,78.75
2023-01-05T11:32:06.978Z,78.54
2023-01-05T11:34:42.050Z,80.65
2023-01-05T11:37:11.825Z,80.15
2023-01-05T11:39:46.856Z,80.37
2023-01-05T11:42:26.509Z,80.32
2023-01-05T11:45:25.062Z,79.76
2023-01-05T11:48:04.053Z,79.73
2023-01-05T11:50:49.762Z,78.64
2023-01-05T11:53:36.996Z,79.46
2023-01-05T11:56:24.345Z,80.09
2023-01-05T11:58:59.992Z,80.19
2023-01-05T12:01:48.652Z,77.80
2023-01-05T12:04:52.767Z,76.77
2023-01-05T12:07:50.158Z,77.85
2023-01-05T12:11:07.704Z,80.27
2023-01-05T12:14:01.608Z,80.70
2023-01-05T12:16:57.332Z,81.10
2023-01-05T12:19:55.096Z,82.49
2023-01-05T12:22:49.432Z,81.19
2023-01-05T12:25:25.985Z,80.53
2023-01-05T12:28:35.739Z,81.91
2023-01-05T12:35:23.134Z,82.17
2023-01-05T12:38:14.045Z,82.36
2023-01-05T12:41:09.316Z,81.20
2023-01-05T12:43:39.007Z,81.65
2023-01-05T12:46:36.905Z,82.39
2023-01-05T12:49:15.294Z,82.27
2023-01-05T12:52:13.198Z,81.16
2023-01-05T12:54:59.584Z,80.32
2023-01-05T12:57:49.610Z,80.43
2023-01-05T13:00:19.755Z,81.94
2023-01-05T13:03:05.994Z,81.28
2023-01-05T13:06:00.699Z,81.79
2023-01-05T13:08:37.677Z,81.33
2023-01-05T13:12:12.937Z,81.79
2023-01-05T13:15:07.556Z,83.38
2023-01-05T13:17:39.948Z,83.52
2023-01-05T13:20:27.720Z,83.94
2023-01-05T13:23:24.477Z,86.08
2023-01-05T13:26:15.967Z,85.65
2023-01-05T13:28:52.384Z,86.25
2023-01-05T13:31:45.530Z,85.63
2023-01-05T13:34:33.080Z,86.52
2023-01-05T13:37:26.945Z,88.37
2023-01-05T13:41:04.385Z,90.38
2023-01-05T13:43:45.119Z,90.13
2023-01-05T13:46:48.554Z,89.56
2023-01-05T13:50:12.397Z,90.02
2023-01-05T13:53:25.718Z,90.40
2023-01-05T13:56:01.423Z,90.85
2023-01-05T13:58:43.415Z,90.34
2023-01-05T14:01:34.354Z,89.47
2023-01-05T14:04:04.532Z,88.65
2023-01-05T14:06:35.002Z,88.27
2023-01-05T14:09:23.339Z,89.20
2023-01-05T14:12:10.745Z,88.27
2023-01-05T14:15:26.344Z,88.62
2023-01-05T14:17:53.298Z,88.73
2023-01-05T14:20:49.435Z,88.92
2023-01-05T14:23:25.319Z,88.88
2023-01-05T14:26:03.502Z,88.49
2023-01-05T14:28:36.042Z,88.58
2023-01-05T14:31:14.503Z,86.74
2023-01-05T14:34:03.649Z,86.36
2023-01-05T14:36:43.851Z,86.97
2023-01-05T14:39:20.170Z,87.69
2023-01-05T14:42:08.076Z,87.30
2023-01-05T14:44:59.883Z,88.28
2023-01-05T14:47:36.946Z,87.36
2023-01-05T14:50:06.493Z,87.30
2023-01-05T14:52:56.157Z,86.26
2023-01-05T14:55:39.252Z,86.83
2023-01-05T14:58:35.775Z,86.74
2023-01-05T15:01:17.884Z,87.07
2023-01-05T15:03:57.394Z,86.93
2023-01-05T15:07:07.762Z,86.23
2023-01-05T15:10:11.616Z,87.01
2023-01-05T15:13:25.649Z,86.89
2023-01-05T15:16:55.285Z,86.90
2023-01-05T15:20:01.600Z,86.45
2023-01-05T15:22:49.895Z,86.87
2023-01-05T15:25:43.440Z,86.84
2023-01-05T15:28:41.774Z,87.43
2023-01-05T15:31:49.110Z,87.00
2023-01-05T15:34:37.678Z,86.53
2023-01-05T15:37:33.441Z,87.05
2023-01-05T15:40:25.412Z,85.72
2023-01-05T15:43:01.531Z,85.80
2023-01-05T15:45:36.133Z,85.95
2023-01-05T15:48:13.756Z,86.25
2023-01-05T15:50:47.804Z,86.00
2023-01-05T15:53:29.496Z,85.89
2023-01-05T15:55:58.003Z,86.48
2023-01-05T15:58:32.325Z,86.10
2023-01-05T16:01:12.662Z,86.84
2023-01-05T16:03:44.271Z,86.34
2023-01-05T16:06:17.044Z,86.38
2023-01-05T16:08:49.988Z,87.92
2023-01-05T16:11:39.197Z,87.71
2023-01-05T16:14:05.969Z,87.37
2023-01-05T16:16:53.937Z,88.17
2023-01-05T16:19:41.564Z,87.22
2023-01-05T16:22:30.393Z,87.25
2023-01-05T16:25:19.949Z,87.98
2023-01-05T16:27:58.559Z,88.67
2023-01-05T16:30:37.771Z,88.93
2023-01-05T16:33:28.339Z,88.56
2023-01-05T16:36:12.856Z,87.76
2023-01-05T16:38:41.180Z,88.05
2023-01-05T16:41:26.862Z,88.99
2023-01-05T16:43:56.494Z,88.96
2023-01-05T16:46:28.687Z,88.70
2023-01-05T16:49:22.772Z,87.38
2023-01-05T16:51:50.977Z,88.16
2023-01-05T16:54:36.992Z,87.17
2023-01-05T16:57:30.805Z,87.29
2023-01-05T16:59:57.971Z,87.31
2023-01-05T17:02:45.972Z,87.96
2023-01-05T17:05:31.325Z,87.62
2023-01-05T17:08:20.381Z,87.35
2023-01-05T17:10:50.653Z,87.16
2023-01-05T17:13:21.998Z,88.03
2023-01-05T17:15:52.263Z,88.55
2023-01-05T17:18:27.250Z,87.66
2023-01-05T17:20:56.834Z,88.22
2023-01-05T17:23:47.467Z,88.98
2023-01-05T17:26:35.012Z,88.81
2023-01-05T17:29:06.907Z,88.32
2023-01-05T17:31:37.390Z,88.95
2023-01-05T17:34:04.233Z,88.82
2023-01-05T17:36:34.748Z,89.17
2023-01-05T17:39:02.503Z,90.20
2023-01-05T17:41:29.423Z,90.16
2023-01-05T17:43:57.007Z,89.39
2023-01-05T17:46:35.595Z,89.62
2023-01-05T17:49:03.421Z,89.77
2023-01-05T17:51:32.118Z,90.00
2023-01-05T17:54:00.212Z,89.60
2023-01-05T17:56:29.439Z,90.49
2023-01-05T17:58:59.478Z,89.73
2023-01-05T18:01:28.733Z,90.29
2023-01-05T18:03:59.078Z,90.23
2023-01-05T18:06:28.537Z,90.04
2023-01-05T18:08:55.432Z,90.37
2023-01-05T18:11:22.653Z,88.96
2023-01-05T18:13:49.836Z,90.55
2023-01-05T18:16:19.577Z,89.69
2023-01-05T18:18:46.596Z,89.35
2023-01-05T18:21:16.515Z,88.42
2023-01-05T18:23:46.427Z,88.84
2023-01-05T18:26:17.854Z,89.22
2023-01-05T18:28:44.808Z,89.00
2023-01-05T18:31:16.629Z,89.41
2023-01-05T18:33:43.722Z,90.04
2023-01-05T18:36:14.761Z,90.53
2023-01-05T18:38:42.610Z,90.60
2023-01-05T18:41:10.915Z,91.77
2023-01-05T18:43:39.297Z,91.59
2023-01-05T18:46:08.637Z,91.35
2023-01-05T18:48:36.088Z,92.26
2023-01-05T18:51:08.327Z,91.76
2023-01-05T18:53:38.699Z,91.53
2023-01-05T18:56:11.252Z,90.73
2023-01-05T18:58:39.594Z,92.29
2023-01-05T19:01:18.726Z,92.49
2023-01-05T19:03:46.017Z,93.31
2023-01-05T19:06:16.522Z,92.74
2023-01-05T19:08:45.007Z,93.15
2023-01-05T19:11:22.312Z,92.91
2023-01-05T19:13:55.022Z,93.08
2023-01-05T19:16:27.946Z,94.34
2023-01-05T19:19:04.094Z,94.31
2023-01-05T19:21:35.887Z,92.85
2023-01-05T19:24:08.148Z,94.30
2023-01-05T19:26:37.843Z,94.66
2023-01-05T19:29:06.564Z,92.76
2023-01-05T19:31:37.070Z,93.90
2023-01-05T19:34:07.177Z,94.51
2023-01-05T19:36:36.064Z,93.20
2023-01-05T19:39:08.873Z,94.17
2023-01-05T19:41:38.226Z,94.69
2023-01-05T19:44:07.794Z,93.36
2023-01-05T19:46:37.613Z,92.86
2023-01-05T19:49:04.588Z,92.32
2023-01-05T19:51:36.813Z,92.41
2023-01-05T19:54:05.099Z,93.18
2023-01-05T19:56:35.088Z,93.28
2023-01-05T19:59:09.895Z,94.06
2023-01-05T20:01:37.805Z,92.59
2023-01-05T20:04:07.369Z,93.03
2023-01-05T20:06:39.189Z,91.72
2023-01-05T20:09:12.091Z,92.78
2023-01-05T20:11:45.777Z,93.99
2023-01-05T20:14:36.119Z,93.46
2023-01-05T20:17:11.098Z,93.52
2023-01-05T20:19:39.656Z,93.38
2023-01-05T20:22:15.154Z,93.28
2023-01-05T20:24:45.248Z,94.37
2023-01-05T20:27:16.761Z,95.05
2023-01-05T20:29:44.055Z,94.45
2023-01-05T20:32:22.624Z,93.02
2023-01-05T20:34:54.217Z,94.80
2023-01-05T20:37:24.020Z,93.47
2023-01-05T20:39:53.819Z,94.30
2023-01-05T20:42:20.782Z,95.07
2023-01-05T20:44:49.911Z,94.43
2023-01-05T20:47:18.027Z,93.68
2023-01-05T20:49:48.962Z,95.09
2023-01-05T20:52:17.845Z,95.47
2023-01-05T20:54:49.797Z,96.10
2023-01-05T20:57:19.147Z,95.48
2023-01-05T20:59:46.575Z,94.62
2023-01-05T21:02:24.414Z,94.80
2023-01-05T21:04:53.408Z,93.69
2023-01-05T21:07:21.474Z,94.35
2023-01-05T21:09:50.928Z,93.94
2023-01-05T21:12:18.936Z,93.64
2023-01-05T21:14:45.947Z,93.74
2023-01-05T21:17:15.397Z,93.98
2023-01-05T21:19:50.208Z,93.75
2023-01-05T21:22:17.347Z,93.41
2023-01-05T21:24:47.671Z,93.97
2023-01-05T21:27:14.630Z,93.48
2023-01-05T21:29:41.822Z,93.21
2023-01-05T21:32:08.775Z,92.68
2023-01-05T21:34:38.084Z,92.12
2023-01-05T21:37:04.951Z,93.83
2023-01-05T21:39:32.547Z,93.94
2023-01-05T21:42:17.958Z,94.33
2023-01-05T21:44:48.089Z,94.09
2023-01-05T21:47:15.326Z,93.74
2023-01-05T21:49:42.333Z,93.36
2023-01-05T21:52:29.157Z,94.17
2023-01-05T21:55:16.964Z,94.63
2023-01-05T21:57:46.505Z,93.44
2023-01-05T22:00:14.176Z,92.56
2023-01-05T22:02:45.886Z,94.02
2023-01-05T22:05:13.231Z,93.50
2023-01-05T22:07:40.204Z,94.73
2023-01-05T22:10:12.578Z,94.35
2023-01-05T22:12:41.986Z,93.97
2023-01-05T22:15:09.929Z,92.26
2023-01-05T22:17:39.050Z,93.90
2023-01-05T22:20:07.008Z,94.42
2023-01-05T22:22:33.911Z,94.66
2023-01-05T22:25:00.752Z,95.62
2023-01-05T22:27:29.682Z,94.71
2023-01-05T22:30:02.101Z,93.62
2023-01-05T22:32:29.023Z,95.02
2023-01-05T22:34:58.433Z,97.08
2023-01-05T22:37:31.020Z,98.12
2023-01-05T22:39:57.969Z,98.32
2023-01-05T22:42:27.646Z,98.72
2023-01-05T22:44:54.726Z,100.00
2023-01-05T22:47:24.003Z,99.25
2023-01-05T22:49:53.377Z,100.00
2023-01-05T22:52:20.320Z,99.19
2023-01-05T22:54:47.208Z,98.83
2023-01-05T22:57:16.602Z,97.42
2023-01-05T22:59:43.724Z,97.42
2023-01-05T23:02:10.674Z,95.83
2023-01-05T23:04:37.612Z,97.18
2023-01-05T23:07:07.942Z,97.68
2023-01-05T23:09:37.627Z,98.12
2023-01-05T23:12:05.107Z,98.21
2023-01-05T23:14:32.194Z,99.77
2023-01-05T23:17:00.005Z,100.00
2023-01-05T23:19:33.368Z,100.00
2023-01-05T23:22:00.431Z,100.00
2023-01-05T23:24:27.462Z,100.00
2023-01-05T23:26:59.784Z,100.00
2023-01-05T23:29:30.971Z,100.00
2023-01-05T23:32:00.408Z,100.00
2023-01-05T23:34:27.401Z,100.00
2023-01-05T23:36:54.354Z,100.00
2023-01-05T23:39:21.482Z,100.00
2023-01-05T23:41:51.392Z,100.00
2023-01-05T23:44:21.452Z,99.65
2023-01-05T23:46:48.446Z,99.48
2023-01-05T23:49:15.308Z,99.78
2023-01-05T23:51:42.433Z,99.82
2023-01-05T23:54:11.664Z,99.89
2023-01-05T23:56:43.657Z,100.00
2023-01-05T23:59:13.385Z,100.00
